Time;durP1;ratioP1;P1;durP2;ratioP2;P2;SDS_P1;SDS_P2;PMS_P1;PMS_P2;Temp;Humidity;BMP_temperature;BMP_pressure;BME280_temperature;BME280_humidity;BME280_pressure;Samples;Min_cycle;Max_cycle;Signal;HPM_P1;HPM_P2
2021/05/01 00:01:40;;;;;;;61.53;42.00;;;;;;;;;;5056704;28;20715;-84
2021/05/01 00:04:05;;;;;;;64.50;42.27;;;;;;;;;;5056979;28;20175;-84
2021/05/01 00:06:31;;;;;;;62.67;41.03;;;;;;;;;;5055642;28;20172;-85
2021/05/01 00:08:56;;;;;;;66.27;40.17;;;;;;;;;;5056612;28;20221;-85
2021/05/01 00:11:23;;;;;;;61.23;40.40;;;;;;;;;;5056427;28;20298;-85
2021/05/01 00:13:48;;;;;;;57.77;40.60;;;;;;;;;;5056801;28;20175;-85
2021/05/01 00:16:14;;;;;;;61.80;39.03;;;;;;;;;;5056787;28;20171;-85
2021/05/01 00:18:39;;;;;;;57.67;38.93;;;;;;;;;;5057008;28;20198;-84
2021/05/01 00:21:04;;;;;;;58.97;38.87;;;;;;;;;;5056398;28;20266;-85
2021/05/01 00:23:30;;;;;;;57.23;37.87;;;;;;;;;;5056836;28;20168;-85
2021/05/01 00:25:55;;;;;;;59.13;39.80;;;;;;;;;;5056883;28;20533;-85
2021/05/01 00:28:21;;;;;;;64.47;43.00;;;;;;;;;;5056808;28;20164;-85
2021/05/01 00:30:46;;;;;;;66.57;43.17;;;;;;;;;;5056454;28;20191;-85
2021/05/01 00:33:11;;;;;;;60.17;40.07;;;;;;;;;;5056435;28;20670;-86
2021/05/01 00:35:37;;;;;;;68.40;44.53;;;;;;;;;;5056131;28;20258;-84
2021/05/01 00:38:02;;;;;;;59.37;41.57;;;;;;;;;;5056914;28;20501;-83
2021/05/01 00:40:28;;;;;;;136.00;68.87;;;;;;;;;;5056570;28;20528;-83
2021/05/01 00:42:53;;;;;;;91.40;52.10;;;;;;;;;;5056275;28;20175;-83
2021/05/01 00:45:18;;;;;;;106.90;59.73;;;;;;;;;;5056264;28;20182;-83
2021/05/01 00:47:44;;;;;;;83.73;52.07;;;;;;;;;;5056418;28;20168;-83
2021/05/01 00:50:09;;;;;;;75.83;49.17;;;;;;;;;;5056216;28;20280;-83
2021/05/01 00:52:35;;;;;;;79.70;48.40;;;;;;;;;;5056170;28;20172;-83
2021/05/01 00:55:02;;;;;;;64.23;44.43;;;;;;;;;;5055132;28;20528;-82
2021/05/01 00:57:28;;;;;;;63.37;42.23;;;;;;;;;;5056289;28;20168;-82
2021/05/01 00:59:54;;;;;;;61.73;42.70;;;;;;;;;;5055590;28;20618;-82
2021/05/01 01:02:22;;;;;;;62.20;43.60;;;;;;;;;;5056190;28;20237;-82
2021/05/01 01:04:48;;;;;;;60.23;41.40;;;;;;;;;;5055743;28;20203;-82
2021/05/01 01:07:13;;;;;;;60.20;41.60;;;;;;;;;;5056108;28;20200;-82
2021/05/01 01:09:38;;;;;;;57.73;41.70;;;;;;;;;;5055789;28;20184;-83
2021/05/01 01:12:04;;;;;;;60.53;40.80;;;;;;;;;;5055721;28;20199;-82
2021/05/01 01:14:29;;;;;;;74.47;48.20;;;;;;;;;;5055671;28;20241;-82
2021/05/01 01:16:55;;;;;;;66.93;46.83;;;;;;;;;;5055377;28;20178;-83
2021/05/01 01:19:20;;;;;;;70.17;46.23;;;;;;;;;;5055820;28;20260;-83
2021/05/01 01:21:46;;;;;;;56.10;39.47;;;;;;;;;;5055477;28;20179;-83
2021/05/01 01:24:12;;;;;;;57.77;40.13;;;;;;;;;;5055575;28;20191;-83
2021/05/01 01:26:38;;;;;;;60.33;40.53;;;;;;;;;;5055857;28;20258;-83
2021/05/01 01:29:04;;;;;;;64.23;44.13;;;;;;;;;;5055802;28;20590;-82
2021/05/01 01:31:29;;;;;;;62.37;43.50;;;;;;;;;;5055366;28;20550;-83
2021/05/01 01:33:54;;;;;;;65.93;42.87;;;;;;;;;;5055081;28;20282;-85
2021/05/01 01:36:20;;;;;;;54.60;40.33;;;;;;;;;;5055299;28;20177;-85
2021/05/01 01:38:45;;;;;;;56.40;41.03;;;;;;;;;;5055554;28;20164;-85
2021/05/01 01:41:10;;;;;;;70.97;47.23;;;;;;;;;;5055679;28;20648;-85
2021/05/01 01:43:37;;;;;;;65.53;44.93;;;;;;;;;;5055165;28;20163;-85
2021/05/01 01:46:02;;;;;;;58.77;41.67;;;;;;;;;;5054864;28;20623;-85
2021/05/01 01:48:28;;;;;;;60.80;41.37;;;;;;;;;;5054846;28;20202;-85
2021/05/01 01:50:53;;;;;;;70.10;44.57;;;;;;;;;;5054857;28;20199;-85
2021/05/01 01:53:20;;;;;;;68.10;45.13;;;;;;;;;;5054921;28;20175;-85
2021/05/01 01:55:45;;;;;;;61.70;43.90;;;;;;;;;;5054900;28;20189;-85
2021/05/01 01:58:10;;;;;;;64.00;42.73;;;;;;;;;;5054588;28;20733;-85
2021/05/01 02:00:36;;;;;;;56.83;39.60;;;;;;;;;;5054812;28;20211;-85
2021/05/01 02:03:01;;;;;;;56.50;38.87;;;;;;;;;;5055065;28;20210;-84
2021/05/01 02:05:27;;;;;;;65.23;44.03;;;;;;;;;;5055398;28;20168;-85
2021/05/01 02:07:52;;;;;;;62.90;42.53;;;;;;;;;;5053792;28;20168;-86
2021/05/01 02:10:18;;;;;;;58.00;40.20;;;;;;;;;;5054133;28;20187;-86
2021/05/01 02:12:43;;;;;;;58.03;41.57;;;;;;;;;;5054342;28;20183;-86
2021/05/01 02:15:13;;;;;;;57.00;40.57;;;;;;;;;;5054877;28;20506;-86
2021/05/01 02:17:40;;;;;;;57.90;40.67;;;;;;;;;;5054517;28;20200;-85
2021/05/01 02:20:06;;;;;;;61.30;40.57;;;;;;;;;;5054734;28;20178;-85
2021/05/01 02:22:32;;;;;;;54.73;38.40;;;;;;;;;;5054195;28;20250;-85
2021/05/01 02:24:57;;;;;;;59.37;40.60;;;;;;;;;;5054508;28;20595;-85
2021/05/01 02:27:22;;;;;;;59.30;40.27;;;;;;;;;;5054592;28;20175;-85
2021/05/01 02:29:48;;;;;;;69.67;44.57;;;;;;;;;;5054860;28;20533;-85
2021/05/01 02:32:13;;;;;;;60.10;41.37;;;;;;;;;;5054466;28;20192;-85
2021/05/01 02:34:38;;;;;;;62.17;42.07;;;;;;;;;;5054250;28;20179;-85
2021/05/01 02:37:04;;;;;;;65.47;41.57;;;;;;;;;;5054197;28;20174;-85
2021/05/01 02:39:30;;;;;;;54.10;38.50;;;;;;;;;;5054710;28;20167;-86
2021/05/01 02:41:55;;;;;;;53.70;37.40;;;;;;;;;;5054436;28;20625;-86
2021/05/01 02:44:21;;;;;;;53.83;36.37;;;;;;;;;;5054172;28;20168;-86
2021/05/01 02:46:46;;;;;;;55.07;36.17;;;;;;;;;;5053733;28;20167;-85
2021/05/01 02:49:11;;;;;;;50.83;35.80;;;;;;;;;;5053650;28;20285;-85
2021/05/01 02:51:37;;;;;;;49.73;32.73;;;;;;;;;;5054119;28;20241;-85
2021/05/01 02:54:02;;;;;;;43.03;29.90;;;;;;;;;;5053668;28;20175;-85
2021/05/01 02:56:27;;;;;;;38.80;28.50;;;;;;;;;;5054514;28;20168;-83
2021/05/01 02:58:53;;;;;;;39.80;30.10;;;;;;;;;;5053638;28;20172;-82
2021/05/01 03:01:18;;;;;;;38.33;29.07;;;;;;;;;;5053659;28;20183;-85
2021/05/01 03:03:46;;;;;;;39.30;28.90;;;;;;;;;;5053823;28;20164;-85
2021/05/01 03:06:13;;;;;;;49.00;33.57;;;;;;;;;;5053459;28;20635;-85
2021/05/01 03:08:38;;;;;;;61.30;38.47;;;;;;;;;;5054099;28;20172;-85
2021/05/01 03:11:03;;;;;;;50.60;33.17;;;;;;;;;;5053856;28;20210;-84
2021/05/01 03:13:28;;;;;;;55.53;34.77;;;;;;;;;;5053767;28;20194;-82
2021/05/01 03:15:54;;;;;;;54.30;35.47;;;;;;;;;;5054355;28;20175;-83
2021/05/01 03:18:19;;;;;;;137.47;71.77;;;;;;;;;;5054081;28;20167;-83
2021/05/01 03:20:45;;;;;;;172.03;95.70;;;;;;;;;;5058348;28;20183;-84
2021/05/01 03:23:10;;;;;;;132.63;81.97;;;;;;;;;;5057802;28;20227;-85
2021/05/01 03:25:36;;;;;;;104.27;70.37;;;;;;;;;;5057724;28;20170;-85
2021/05/01 03:28:01;;;;;;;83.63;61.80;;;;;;;;;;5057945;28;20172;-85
2021/05/01 03:30:27;;;;;;;58.57;45.23;;;;;;;;;;5056914;28;20199;-85
2021/05/01 03:32:52;;;;;;;55.77;42.73;;;;;;;;;;5057319;28;20195;-85
2021/05/01 03:35:17;;;;;;;49.87;37.53;;;;;;;;;;5057624;28;20257;-85
2021/05/01 03:37:43;;;;;;;44.53;32.47;;;;;;;;;;5057354;28;20172;-85
2021/05/01 03:40:09;;;;;;;42.10;30.93;;;;;;;;;;5057530;28;20172;-85
2021/05/01 03:42:34;;;;;;;45.90;34.63;;;;;;;;;;5057165;28;20571;-85
2021/05/01 03:45:00;;;;;;;51.20;41.07;;;;;;;;;;5056081;28;20271;-85
2021/05/01 03:47:25;;;;;;;57.80;40.30;;;;;;;;;;5057565;28;20237;-85
2021/05/01 03:49:50;;;;;;;54.93;40.30;;;;;;;;;;5057169;28;20583;-85
2021/05/01 03:52:16;;;;;;;47.97;35.33;;;;;;;;;;5057259;28;20199;-85
2021/05/01 03:54:41;;;;;;;45.87;33.07;;;;;;;;;;5057305;28;20175;-85
2021/05/01 03:57:06;;;;;;;41.73;30.57;;;;;;;;;;5057484;28;20171;-83
2021/05/01 03:59:32;;;;;;;39.37;29.33;;;;;;;;;;5056852;28;20178;-83
2021/05/01 04:01:57;;;;;;;42.40;30.93;;;;;;;;;;5057094;28;20182;-83
2021/05/01 04:04:23;;;;;;;41.50;31.33;;;;;;;;;;5057325;28;20182;-84
2021/05/01 04:06:48;;;;;;;43.87;31.60;;;;;;;;;;5056979;28;20530;-85
2021/05/01 04:09:13;;;;;;;40.13;30.90;;;;;;;;;;5056912;28;20168;-85
2021/05/01 04:11:39;;;;;;;40.20;30.73;;;;;;;;;;5056813;28;20242;-85
2021/05/01 04:14:04;;;;;;;40.70;31.27;;;;;;;;;;5055726;28;20275;-85
2021/05/01 04:16:29;;;;;;;42.37;31.83;;;;;;;;;;5056823;28;20172;-83
2021/05/01 04:18:55;;;;;;;39.17;31.17;;;;;;;;;;5057005;28;20175;-82
2021/05/01 04:21:20;;;;;;;36.47;28.07;;;;;;;;;;5056422;28;20176;-83
2021/05/01 04:23:46;;;;;;;36.30;30.33;;;;;;;;;;5056704;28;20629;-83
2021/05/01 04:26:11;;;;;;;36.40;29.23;;;;;;;;;;5057132;28;20180;-83
2021/05/01 04:28:36;;;;;;;38.10;29.87;;;;;;;;;;5056314;28;20176;-83
2021/05/01 04:31:02;;;;;;;34.47;29.13;;;;;;;;;;5055431;28;20283;-83
2021/05/01 04:33:28;;;;;;;35.47;28.73;;;;;;;;;;5056403;28;20270;-83
2021/05/01 04:35:54;;;;;;;35.63;29.37;;;;;;;;;;5056152;28;20172;-83
2021/05/01 04:38:19;;;;;;;32.17;28.77;;;;;;;;;;5056380;28;20172;-83
2021/05/01 04:40:46;;;;;;;30.97;27.47;;;;;;;;;;5056980;28;20254;-84
2021/05/01 04:43:12;;;;;;;31.63;28.33;;;;;;;;;;5056335;28;20172;-84
2021/05/01 04:45:38;;;;;;;37.20;32.33;;;;;;;;;;5056529;28;20168;-84
2021/05/01 04:48:04;;;;;;;33.10;29.70;;;;;;;;;;5055895;28;20172;-84
2021/05/01 04:50:30;;;;;;;33.77;30.17;;;;;;;;;;5056426;28;20686;-83
2021/05/01 04:52:55;;;;;;;30.50;27.50;;;;;;;;;;5056444;28;20263;-84
2021/05/01 04:55:20;;;;;;;29.73;26.70;;;;;;;;;;5056119;28;20195;-83
2021/05/01 04:57:47;;;;;;;32.40;28.90;;;;;;;;;;5056349;28;20195;-84
2021/05/01 05:00:13;;;;;;;32.20;27.13;;;;;;;;;;5055969;28;20204;-83
2021/05/01 05:02:38;;;;;;;33.47;28.10;;;;;;;;;;5055946;28;20210;-84
2021/05/01 05:05:04;;;;;;;31.37;27.23;;;;;;;;;;5056432;28;20164;-84
2021/05/01 05:07:30;;;;;;;30.83;27.40;;;;;;;;;;5055983;28;20176;-84
2021/05/01 05:09:55;;;;;;;35.73;28.73;;;;;;;;;;5055507;28;20188;-84
2021/05/01 05:12:21;;;;;;;34.70;28.00;;;;;;;;;;5055426;28;20188;-83
2021/05/01 05:14:46;;;;;;;42.97;33.97;;;;;;;;;;5055712;28;20175;-84
2021/05/01 05:17:11;;;;;;;44.87;35.40;;;;;;;;;;5055587;28;20514;-84
2021/05/01 05:19:36;;;;;;;38.83;32.80;;;;;;;;;;5055655;28;20172;-84
2021/05/01 05:22:02;;;;;;;38.57;31.77;;;;;;;;;;5055754;28;20168;-83
2021/05/01 05:24:27;;;;;;;41.17;35.53;;;;;;;;;;5055515;28;20172;-83
2021/05/01 05:26:53;;;;;;;56.70;40.63;;;;;;;;;;5055503;28;20172;-83
2021/05/01 05:29:18;;;;;;;63.63;40.63;;;;;;;;;;5054630;28;20326;-86
2021/05/01 05:31:44;;;;;;;44.67;33.27;;;;;;;;;;5055677;28;20199;-83
2021/05/01 05:34:09;;;;;;;36.83;28.47;;;;;;;;;;5055342;28;20523;-84
2021/05/01 05:36:35;;;;;;;52.73;36.03;;;;;;;;;;5055277;28;20160;-84
2021/05/01 05:39:00;;;;;;;50.03;34.53;;;;;;;;;;5055809;28;20167;-84
2021/05/01 05:41:26;;;;;;;33.83;29.20;;;;;;;;;;5055371;28;20164;-84
2021/05/01 05:43:52;;;;;;;30.80;27.23;;;;;;;;;;5055215;28;20255;-85
2021/05/01 05:46:18;;;;;;;46.58;35.30;;;;;;;;;;5055309;28;20161;-85
2021/05/01 05:48:44;;;;;;;44.10;35.60;;;;;;;;;;5055209;28;20167;-85
2021/05/01 05:51:09;;;;;;;45.08;35.75;;;;;;;;;;5055007;28;20591;-85
2021/05/01 05:53:35;;;;;;;51.58;39.33;;;;;;;;;;5054939;28;20184;-86
2021/05/01 05:56:00;;;;;;;45.35;34.85;;;;;;;;;;5054683;28;20176;-86
2021/05/01 05:58:25;;;;;;;30.65;27.65;;;;;;;;;;5054879;28;20171;-85
2021/05/01 06:00:51;;;;;;;30.60;27.70;;;;;;;;;;5054561;28;20619;-85
2021/05/01 06:03:17;;;;;;;30.30;27.50;;;;;;;;;;5055100;28;20204;-85
2021/05/01 06:05:45;;;;;;;31.98;28.80;;;;;;;;;;5055074;28;20206;-85
2021/05/01 06:08:11;;;;;;;30.08;27.38;;;;;;;;;;5054992;28;20164;-85
2021/05/01 06:10:39;;;;;;;33.60;29.38;;;;;;;;;;5054806;28;20251;-86
2021/05/01 06:13:05;;;;;;;28.75;25.95;;;;;;;;;;5054886;28;20180;-85
2021/05/01 06:15:31;;;;;;;26.08;23.60;;;;;;;;;;5054843;28;20168;-85
2021/05/01 06:17:58;;;;;;;39.80;33.03;;;;;;;;;;5054785;28;20172;-85
2021/05/01 06:20:25;;;;;;;30.35;27.33;;;;;;;;;;5054230;28;20200;-86
2021/05/01 06:22:51;;;;;;;36.63;30.80;;;;;;;;;;5054534;28;20167;-86
2021/05/01 06:25:17;;;;;;;27.95;25.13;;;;;;;;;;5054080;28;20168;-85
2021/05/01 06:27:42;;;;;;;39.28;30.83;;;;;;;;;;5050788;28;20248;-85
2021/05/01 06:30:08;;;;;;;30.90;26.30;;;;;;;;;;5047050;28;20179;-85
2021/05/01 06:32:34;;;;;;;39.93;32.03;;;;;;;;;;5036757;28;20274;-85
2021/05/01 06:35:00;;;;;;;27.63;24.63;;;;;;;;;;5034408;28;20642;-84
2021/05/01 06:37:26;;;;;;;36.20;28.47;;;;;;;;;;5034050;28;20226;-84
2021/05/01 06:39:53;;;;;;;28.20;24.27;;;;;;;;;;5034517;28;20176;-84
2021/05/01 06:42:27;;;;;;;28.43;24.37;;;;;;;;;;5034145;28;20186;-84
2021/05/01 06:44:55;;;;;;;32.03;26.30;;;;;;;;;;5036880;28;20184;-85
2021/05/01 06:47:27;;;;;;;38.93;29.20;;;;;;;;;;5052861;28;20175;-84
2021/05/01 06:49:58;;;;;;;24.10;21.60;;;;;;;;;;5053843;28;20662;-84
2021/05/01 06:52:24;;;;;;;25.77;22.97;;;;;;;;;;5054046;28;20195;-84
2021/05/01 06:54:51;;;;;;;24.80;21.80;;;;;;;;;;5053096;28;20259;-84
2021/05/01 06:57:21;;;;;;;26.70;23.80;;;;;;;;;;5054224;28;20210;-84
2021/05/01 06:59:46;;;;;;;25.30;22.60;;;;;;;;;;5053640;28;20179;-85
2021/05/01 07:02:12;;;;;;;26.37;22.23;;;;;;;;;;5045691;28;20177;-84
2021/05/01 07:04:37;;;;;;;31.70;26.27;;;;;;;;;;5044010;28;20172;-86
2021/05/01 07:07:03;;;;;;;31.00;25.60;;;;;;;;;;5047225;28;20194;-88
2021/05/01 07:09:30;;;;;;;30.83;24.77;;;;;;;;;;5043507;28;20191;-86
2021/05/01 07:11:55;;;;;;;26.77;22.33;;;;;;;;;;5038440;28;20302;-87
2021/05/01 07:14:21;;;;;;;30.50;23.80;;;;;;;;;;5046889;28;20266;-87
2021/05/01 07:16:46;;;;;;;26.37;22.83;;;;;;;;;;5043689;28;20177;-87
2021/05/01 07:19:13;;;;;;;25.10;21.53;;;;;;;;;;5033665;28;20256;-86
2021/05/01 07:21:38;;;;;;;22.93;20.43;;;;;;;;;;5033948;28;20177;-85
2021/05/01 07:24:04;;;;;;;29.87;23.20;;;;;;;;;;5033610;28;20223;-84
2021/05/01 07:26:29;;;;;;;24.23;21.17;;;;;;;;;;5033796;28;20172;-85
2021/05/01 07:28:56;;;;;;;27.53;22.13;;;;;;;;;;5033386;28;20638;-85
2021/05/01 07:31:27;;;;;;;24.33;19.80;;;;;;;;;;5033288;28;20200;-86
2021/05/01 07:33:55;;;;;;;29.40;22.33;;;;;;;;;;5036688;28;20175;-86
2021/05/01 07:36:27;;;;;;;31.27;24.33;;;;;;;;;;5053484;28;20172;-86
2021/05/01 07:38:53;;;;;;;25.53;22.57;;;;;;;;;;5053126;28;20585;-86
2021/05/01 07:41:20;;;;;;;21.13;18.87;;;;;;;;;;5053066;28;20298;-86
2021/05/01 07:43:49;;;;;;;22.80;19.17;;;;;;;;;;5053281;28;20615;-87
2021/05/01 07:46:15;;;;;;;21.77;19.47;;;;;;;;;;5053087;28;20614;-87
2021/05/01 07:48:41;;;;;;;20.83;18.70;;;;;;;;;;5052326;28;20276;-88
2021/05/01 07:51:07;;;;;;;20.13;18.03;;;;;;;;;;5053631;28;20542;-87
2021/05/01 07:53:34;;;;;;;21.37;19.17;;;;;;;;;;5053313;28;20183;-87
2021/05/01 07:56:00;;;;;;;22.73;20.43;;;;;;;;;;5052048;28;20188;-86
2021/05/01 07:58:25;;;;;;;21.77;19.40;;;;;;;;;;5052906;28;20546;-86
2021/05/01 08:00:51;;;;;;;21.50;19.10;;;;;;;;;;5053752;28;20549;-86
2021/05/01 08:03:17;;;;;;;22.90;19.63;;;;;;;;;;5052861;28;20218;-86
2021/05/01 08:05:42;;;;;;;20.20;18.10;;;;;;;;;;5055497;28;20164;-86
2021/05/01 08:08:07;;;;;;;21.70;19.33;;;;;;;;;;5051126;28;20188;-86
2021/05/01 08:10:33;;;;;;;22.70;19.53;;;;;;;;;;5054622;28;20180;-87
2021/05/01 08:12:58;;;;;;;20.17;18.07;;;;;;;;;;5056580;28;20268;-87
2021/05/01 08:15:28;;;;;;;22.20;19.80;;;;;;;;;;5056354;28;20537;-85
2021/05/01 08:17:53;;;;;;;22.63;20.03;;;;;;;;;;5057217;28;20176;-88
2021/05/01 08:20:19;;;;;;;22.37;20.07;;;;;;;;;;5057080;28;20178;-86
2021/05/01 08:22:44;;;;;;;31.83;22.27;;;;;;;;;;5056509;28;20176;-86
2021/05/01 08:25:11;;;;;;;20.47;18.13;;;;;;;;;;5056858;28;20176;-86
2021/05/01 08:27:37;;;;;;;21.67;19.30;;;;;;;;;;5037725;28;20182;-86
2021/05/01 08:30:03;;;;;;;20.00;17.80;;;;;;;;;;5036694;28;20690;-86
2021/05/01 08:32:29;;;;;;;22.47;19.27;;;;;;;;;;5036617;28;20200;-87
2021/05/01 08:34:54;;;;;;;20.27;18.17;;;;;;;;;;5036589;28;20176;-86
2021/05/01 08:37:19;;;;;;;22.33;19.87;;;;;;;;;;5045315;28;20172;-87
2021/05/01 08:39:45;;;;;;;20.00;17.90;;;;;;;;;;5056575;28;20175;-87
2021/05/01 08:42:10;;;;;;;21.60;17.90;;;;;;;;;;5055965;28;20708;-86
2021/05/01 08:44:36;;;;;;;20.37;17.77;;;;;;;;;;5056078;28;20170;-86
2021/05/01 08:47:02;;;;;;;22.27;18.33;;;;;;;;;;5055918;28;20249;-85
2021/05/01 08:49:28;;;;;;;22.73;18.37;;;;;;;;;;5055536;28;20232;-86
2021/05/01 08:51:53;;;;;;;20.50;16.90;;;;;;;;;;5051950;28;20204;-85
2021/05/01 08:54:25;;;;;;;22.33;18.53;;;;;;;;;;5035137;28;20177;-85
2021/05/01 08:56:50;;;;;;;21.33;19.03;;;;;;;;;;5037136;28;20161;-86
2021/05/01 08:59:16;;;;;;;24.70;21.40;;;;;;;;;;5036082;28;20615;-84
2021/05/01 09:01:42;;;;;;;30.00;25.03;;;;;;;;;;5036005;28;20635;-84
2021/05/01 09:04:08;;;;;;;29.47;24.63;;;;;;;;;;5036012;28;20227;-85
2021/05/01 09:06:34;;;;;;;24.60;21.53;;;;;;;;;;5035958;28;20172;-85
2021/05/01 09:09:00;;;;;;;25.57;21.90;;;;;;;;;;5036038;28;20180;-84
2021/05/01 09:11:35;;;;;;;28.13;24.83;;;;;;;;;;5035692;28;20211;-85
2021/05/01 09:14:13;;;;;;;41.40;33.40;;;;;;;;;;5036181;28;20179;-85
2021/05/01 09:16:39;;;;;;;34.43;27.07;;;;;;;;;;5035817;28;20172;-85
2021/05/01 09:19:05;;;;;;;28.90;24.23;;;;;;;;;;5036005;28;20179;-85
2021/05/01 09:21:30;;;;;;;34.63;26.13;;;;;;;;;;5058091;28;20541;-84
2021/05/01 09:23:56;;;;;;;42.13;28.17;;;;;;;;;;5076281;28;20207;-85
2021/05/01 09:26:35;;;;;;;28.53;23.17;;;;;;;;;;5075194;28;20195;-85
2021/05/01 09:29:01;;;;;;;25.63;21.57;;;;;;;;;;5075597;28;20184;-86
2021/05/01 09:31:37;;;;;;;21.80;19.50;;;;;;;;;;5075637;28;20195;-85
2021/05/01 09:34:02;;;;;;;24.63;21.67;;;;;;;;;;5075568;28;20242;-85
2021/05/01 09:36:28;;;;;;;26.53;22.00;;;;;;;;;;5075294;28;20677;-86
2021/05/01 09:39:00;;;;;;;24.53;19.90;;;;;;;;;;5075574;28;20254;-86
2021/05/01 09:41:32;;;;;;;21.73;19.43;;;;;;;;;;5075247;28;20176;-88
2021/05/01 09:44:06;;;;;;;25.37;21.57;;;;;;;;;;5074477;28;20201;-86
2021/05/01 09:46:42;;;;;;;25.13;22.30;;;;;;;;;;5073852;28;20201;-85
2021/05/01 09:49:24;;;;;;;24.70;21.37;;;;;;;;;;5075210;28;20227;-86
2021/05/01 09:51:49;;;;;;;26.67;22.70;;;;;;;;;;5059170;28;20605;-85
2021/05/01 09:54:16;;;;;;;24.93;22.33;;;;;;;;;;5055005;28;20180;-85
2021/05/01 09:56:43;;;;;;;24.90;22.20;;;;;;;;;;5054828;28;20183;-85
2021/05/01 09:59:08;;;;;;;28.50;23.67;;;;;;;;;;5055195;28;20176;-85
2021/05/01 10:01:34;;;;;;;86.23;47.20;;;;;;;;;;5054560;28;20211;-85
2021/05/01 10:04:10;;;;;;;77.73;42.80;;;;;;;;;;5055140;28;20565;-85
2021/05/01 10:06:35;;;;;;;68.90;41.63;;;;;;;;;;5054473;28;20225;-85
2021/05/01 10:09:02;;;;;;;90.93;47.30;;;;;;;;;;5054805;28;20183;-84
2021/05/01 10:11:29;;;;;;;26.60;21.60;;;;;;;;;;5054479;28;20199;-85
2021/05/01 10:13:55;;;;;;;23.93;20.97;;;;;;;;;;5054543;28;20168;-84
2021/05/01 10:16:21;;;;;;;25.23;22.07;;;;;;;;;;5054324;28;20164;-84
2021/05/01 10:19:05;;;;;;;25.30;21.47;;;;;;;;;;5054521;28;20168;-84
2021/05/01 10:21:31;;;;;;;22.80;20.40;;;;;;;;;;5054777;28;20308;-85
2021/05/01 10:23:56;;;;;;;23.33;20.83;;;;;;;;;;5054458;28;20197;-85
2021/05/01 10:26:22;;;;;;;24.53;21.87;;;;;;;;;;5054252;28;20191;-85
2021/05/01 10:28:49;;;;;;;22.57;20.17;;;;;;;;;;5053648;28;20167;-84
2021/05/01 10:31:17;;;;;;;22.07;19.67;;;;;;;;;;5054275;28;20265;-84
2021/05/01 10:33:44;;;;;;;21.97;19.67;;;;;;;;;;5054139;28;20572;-85
2021/05/01 10:36:28;;;;;;;22.30;20.00;;;;;;;;;;5054176;28;20175;-85
2021/05/01 10:38:58;;;;;;;23.43;20.93;;;;;;;;;;5054661;28;20217;-85
2021/05/01 10:41:24;;;;;;;23.47;21.07;;;;;;;;;;5052510;28;20184;-85
2021/05/01 10:43:51;;;;;;;24.20;21.70;;;;;;;;;;5053855;28;20172;-85
2021/05/01 10:46:25;;;;;;;24.20;21.60;;;;;;;;;;5054368;28;20225;-85
2021/05/01 10:48:52;;;;;;;25.77;22.97;;;;;;;;;;5054383;28;20246;-85
2021/05/01 10:51:22;;;;;;;23.57;21.07;;;;;;;;;;5053562;28;20196;-85
2021/05/01 10:53:48;;;;;;;23.97;21.40;;;;;;;;;;5053902;28;20199;-84
2021/05/01 10:56:14;;;;;;;27.10;24.20;;;;;;;;;;5053594;28;20637;-85
2021/05/01 10:58:43;;;;;;;21.23;19.03;;;;;;;;;;5047304;28;20188;-84
2021/05/01 11:01:36;;;;;;;21.53;19.13;;;;;;;;;;5053856;28;20230;-84
2021/05/01 11:04:05;;;;;;;23.13;20.63;;;;;;;;;;5050013;28;20180;-84
2021/05/01 11:06:51;;;;;;;20.97;18.87;;;;;;;;;;5054082;28;20230;-84
2021/05/01 11:09:31;;;;;;;29.63;23.90;;;;;;;;;;5053543;28;20198;-85
2021/05/01 11:11:58;;;;;;;37.00;27.90;;;;;;;;;;5044775;28;20258;-85
2021/05/01 11:14:26;;;;;;;22.17;19.80;;;;;;;;;;5046591;28;20183;-86
2021/05/01 11:16:56;;;;;;;25.30;21.17;;;;;;;;;;5053411;28;20241;-86
2021/05/01 11:19:22;;;;;;;22.13;19.80;;;;;;;;;;5053469;28;20641;-86
2021/05/01 11:21:48;;;;;;;22.13;19.83;;;;;;;;;;5053383;28;20168;-85
2021/05/01 11:24:14;;;;;;;24.47;21.73;;;;;;;;;;5053801;28;20164;-84
2021/05/01 11:26:46;;;;;;;20.73;18.63;;;;;;;;;;5053345;28;20653;-84
2021/05/01 11:29:12;;;;;;;19.70;17.70;;;;;;;;;;5053539;28;20164;-85
2021/05/01 11:31:39;;;;;;;21.43;18.30;;;;;;;;;;5053850;28;20226;-85
2021/05/01 11:34:05;;;;;;;21.27;18.00;;;;;;;;;;5051889;28;20206;-85
2021/05/01 11:36:33;;;;;;;22.10;18.50;;;;;;;;;;5044158;28;20758;-85
2021/05/01 11:38:59;;;;;;;19.80;17.70;;;;;;;;;;5033732;28;20172;-85
2021/05/01 11:41:25;;;;;;;21.23;16.47;;;;;;;;;;5040883;28;20171;-85
2021/05/01 11:43:51;;;;;;;21.03;18.83;;;;;;;;;;5045458;28;20177;-85
2021/05/01 11:46:23;;;;;;;21.87;19.07;;;;;;;;;;5045712;28;20259;-85
2021/05/01 11:49:07;;;;;;;34.53;29.07;;;;;;;;;;5043668;28;20319;-86
2021/05/01 11:51:46;;;;;;;35.07;29.50;;;;;;;;;;5048436;28;20231;-85
2021/05/01 11:54:26;;;;;;;29.63;23.17;;;;;;;;;;5045967;28;20174;-85
2021/05/01 11:56:54;;;;;;;22.83;19.10;;;;;;;;;;5047699;28;20175;-85
2021/05/01 11:59:20;;;;;;;25.83;21.77;;;;;;;;;;5048852;28;20187;-85
2021/05/01 12:02:02;;;;;;;29.70;24.80;;;;;;;;;;5045560;28;20519;-85
2021/05/01 12:04:57;;;;;;;26.77;21.80;;;;;;;;;;5045160;28;20569;-85
2021/05/01 12:07:32;;;;;;;31.37;26.50;;;;;;;;;;5052482;28;20189;-85
2021/05/01 12:10:01;;;;;;;33.10;25.03;;;;;;;;;;5047217;28;20198;-86
2021/05/01 12:12:28;;;;;;;25.83;21.47;;;;;;;;;;5046884;28;20208;-86
2021/05/01 12:15:00;;;;;;;24.80;21.37;;;;;;;;;;5046142;28;20627;-87
2021/05/01 12:17:28;;;;;;;25.23;21.53;;;;;;;;;;5045148;28;20157;-86
2021/05/01 12:20:03;;;;;;;25.57;20.63;;;;;;;;;;5046240;28;20176;-85
2021/05/01 12:22:29;;;;;;;24.70;21.03;;;;;;;;;;5046758;28;20225;-85
2021/05/01 12:24:56;;;;;;;21.47;18.43;;;;;;;;;;5044341;28;20231;-86
2021/05/01 12:27:40;;;;;;;21.80;18.87;;;;;;;;;;5044892;28;20247;-86
2021/05/01 12:30:05;;;;;;;24.00;21.17;;;;;;;;;;5047544;28;20653;-86
2021/05/01 12:32:31;;;;;;;42.40;35.90;;;;;;;;;;5041612;28;20208;-86
2021/05/01 12:34:57;;;;;;;60.27;46.50;;;;;;;;;;5042747;28;20168;-85
2021/05/01 12:37:23;;;;;;;66.30;54.47;;;;;;;;;;5044335;28;20191;-86
2021/05/01 12:39:48;;;;;;;25.20;22.60;;;;;;;;;;5037443;28;20259;-86
2021/05/01 12:42:31;;;;;;;28.07;23.70;;;;;;;;;;5036566;28;20177;-88
2021/05/01 12:44:57;;;;;;;33.00;27.67;;;;;;;;;;5043237;28;20225;-85
2021/05/01 12:47:34;;;;;;;32.07;28.00;;;;;;;;;;5051848;28;20172;-85
2021/05/01 12:50:12;;;;;;;27.57;21.80;;;;;;;;;;5047183;28;20227;-85
2021/05/01 12:52:37;;;;;;;29.87;25.40;;;;;;;;;;5040210;28;20203;-85
2021/05/01 12:55:03;;;;;;;27.47;24.17;;;;;;;;;;5045660;28;20172;-85
2021/05/01 12:57:32;;;;;;;27.93;24.80;;;;;;;;;;5044163;28;20204;-87
2021/05/01 12:59:59;;;;;;;29.80;25.03;;;;;;;;;;5046307;28;20183;-87
2021/05/01 13:02:25;;;;;;;29.93;26.70;;;;;;;;;;5044779;28;20184;-86
2021/05/01 13:05:04;;;;;;;34.53;27.67;;;;;;;;;;5044670;28;20176;-86
2021/05/01 13:07:30;;;;;;;36.53;28.90;;;;;;;;;;5042971;28;20234;-87
2021/05/01 13:09:57;;;;;;;32.40;27.97;;;;;;;;;;5045830;28;20619;-87
2021/05/01 13:12:26;;;;;;;32.80;28.47;;;;;;;;;;5043798;28;20207;-85
2021/05/01 13:14:55;;;;;;;35.67;28.77;;;;;;;;;;5052430;28;20665;-86
2021/05/01 13:17:23;;;;;;;34.13;28.67;;;;;;;;;;5055576;28;20176;-85
2021/05/01 13:20:06;;;;;;;32.47;27.53;;;;;;;;;;5035384;28;20674;-85
2021/05/01 13:22:32;;;;;;;38.37;28.37;;;;;;;;;;5035418;28;20558;-85
2021/05/01 13:25:00;;;;;;;36.43;32.57;;;;;;;;;;5035297;28;20171;-85
2021/05/01 13:27:30;;;;;;;41.03;36.43;;;;;;;;;;5036069;28;20173;-85
2021/05/01 13:30:00;;;;;;;28.90;25.80;;;;;;;;;;5036191;28;20165;-85
2021/05/01 13:32:25;;;;;;;29.30;25.33;;;;;;;;;;5034982;28;20516;-86
2021/05/01 13:34:56;;;;;;;30.33;25.07;;;;;;;;;;5035567;28;20176;-85
2021/05/01 13:37:23;;;;;;;31.00;27.13;;;;;;;;;;5040412;28;20623;-86
2021/05/01 13:39:49;;;;;;;34.47;28.23;;;;;;;;;;5045600;28;20211;-85
2021/05/01 13:42:15;;;;;;;32.37;27.43;;;;;;;;;;5027656;28;20623;-86
2021/05/01 13:44:40;;;;;;;30.93;27.63;;;;;;;;;;5044349;28;20215;-86
2021/05/01 13:47:15;;;;;;;27.17;24.47;;;;;;;;;;5045632;28;20649;-86
2021/05/01 13:49:41;;;;;;;29.93;26.70;;;;;;;;;;5045899;28;20223;-86
2021/05/01 13:52:06;;;;;;;28.47;25.03;;;;;;;;;;5043003;28;20205;-86
2021/05/01 13:54:34;;;;;;;29.27;26.17;;;;;;;;;;5044736;28;20198;-86
2021/05/01 13:57:06;;;;;;;31.63;26.93;;;;;;;;;;5045511;28;20173;-86
2021/05/01 13:59:32;;;;;;;45.67;40.77;;;;;;;;;;5045658;28;20203;-86
2021/05/01 14:01:57;;;;;;;39.67;35.03;;;;;;;;;;5044047;28;20215;-86
2021/05/01 14:04:26;;;;;;;27.43;24.60;;;;;;;;;;5043280;28;20215;-86
2021/05/01 14:06:52;;;;;;;31.97;27.60;;;;;;;;;;5043675;28;20176;-86
2021/05/01 14:09:18;;;;;;;30.57;27.10;;;;;;;;;;5045283;28;20191;-86
2021/05/01 14:11:43;;;;;;;30.23;26.37;;;;;;;;;;5042673;28;20543;-86
2021/05/01 14:14:09;;;;;;;29.03;25.10;;;;;;;;;;5044861;28;20186;-86
2021/05/01 14:16:34;;;;;;;33.13;28.57;;;;;;;;;;5044924;28;20179;-86